createdAt,value
2023-05-16T00:01:22.952Z,13.91
2023-05-16T00:03:52.507Z,14.11
2023-05-16T00:06:19.168Z,13.82
2023-05-16T00:08:45.826Z,13.68
2023-05-16T00:11:12.453Z,13.44
2023-05-16T00:13:39.023Z,13.36
2023-05-16T00:16:05.730Z,13.31
2023-05-16T00:18:32.352Z,13.31
2023-05-16T00:20:58.952Z,13.43
2023-05-16T00:23:25.595Z,13.31
2023-05-16T00:25:52.234Z,13.44
2023-05-16T00:28:18.843Z,13.42
2023-05-16T00:30:45.431Z,13.52
2023-05-16T00:33:12.079Z,13.65
2023-05-16T00:35:38.883Z,13.54
2023-05-16T00:38:05.929Z,13.50
2023-05-16T00:40:32.567Z,13.51
2023-05-16T00:42:59.349Z,13.53
2023-05-16T00:45:25.966Z,13.52
2023-05-16T00:47:52.880Z,13.48
2023-05-16T00:50:19.883Z,13.54
2023-05-16T00:52:46.564Z,13.56
2023-05-16T00:55:13.421Z,13.59
2023-05-16T00:57:40.351Z,13.59
2023-05-16T01:00:08.550Z,13.45
2023-05-16T01:02:35.281Z,13.28
2023-05-16T01:05:02.124Z,12.82
2023-05-16T01:07:28.854Z,12.71
2023-05-16T01:09:55.549Z,12.84
2023-05-16T01:12:45.906Z,12.99
2023-05-16T01:15:18.476Z,13.11
2023-05-16T01:18:08.844Z,13.18
2023-05-16T01:21:00.754Z,13.31
2023-05-16T01:23:50.003Z,13.31
2023-05-16T01:26:27.863Z,12.98
2023-05-16T01:28:55.592Z,12.58
2023-05-16T01:31:23.468Z,12.75
2023-05-16T01:33:50.321Z,12.96
2023-05-16T01:36:26.633Z,13.23
2023-05-16T01:39:11.222Z,13.30
2023-05-16T01:42:07.030Z,13.14
2023-05-16T01:44:44.007Z,13.08
2023-05-16T01:47:14.902Z,13.10
2023-05-16T01:49:44.600Z,13.13
2023-05-16T01:52:50.475Z,13.22
2023-05-16T01:55:25.985Z,12.97
2023-05-16T01:57:53.804Z,12.86
2023-05-16T02:00:20.915Z,12.85
2023-05-16T02:02:47.696Z,12.77
2023-05-16T02:05:14.372Z,12.68
2023-05-16T02:07:41.012Z,12.80
2023-05-16T02:10:08.230Z,12.44
2023-05-16T02:12:35.009Z,12.54
2023-05-16T02:15:01.593Z,12.60
2023-05-16T02:17:28.201Z,12.66
2023-05-16T02:19:54.847Z,12.76
2023-05-16T02:22:21.508Z,12.94
2023-05-16T02:24:48.128Z,13.20
2023-05-16T02:27:14.793Z,12.97
2023-05-16T02:29:41.376Z,12.76
2023-05-16T02:32:08.206Z,12.57
2023-05-16T02:34:34.815Z,12.60
2023-05-16T02:37:01.408Z,12.54
2023-05-16T02:39:28.105Z,12.57
2023-05-16T02:41:54.874Z,12.72
2023-05-16T02:44:21.596Z,12.45
2023-05-16T02:46:48.457Z,12.29
2023-05-16T02:49:15.233Z,12.22
2023-05-16T02:51:41.835Z,12.40
2023-05-16T02:54:08.484Z,12.43
2023-05-16T02:56:35.446Z,12.56
2023-05-16T02:59:02.137Z,12.61
2023-05-16T03:01:28.844Z,12.72
2023-05-16T03:03:55.578Z,12.89
2023-05-16T03:06:22.542Z,12.80
2023-05-16T03:08:49.113Z,12.67
2023-05-16T03:11:17.467Z,12.58
2023-05-16T03:13:44.071Z,12.53
2023-05-16T03:16:10.708Z,12.46
2023-05-16T03:18:37.455Z,12.39
2023-05-16T03:21:04.328Z,12.35
2023-05-16T03:23:30.876Z,12.31
2023-05-16T03:25:57.566Z,12.46
2023-05-16T03:28:24.511Z,12.50
2023-05-16T03:30:51.161Z,12.19
2023-05-16T03:33:17.795Z,12.24
2023-05-16T03:35:44.790Z,12.21
2023-05-16T03:38:11.783Z,12.38
2023-05-16T03:40:38.417Z,12.20
2023-05-16T03:43:05.054Z,12.33
2023-05-16T03:45:31.748Z,12.32
2023-05-16T03:47:58.474Z,12.21
2023-05-16T03:50:25.238Z,12.15
2023-05-16T03:52:52.147Z,11.66
2023-05-16T03:55:18.791Z,11.69
2023-05-16T03:57:45.482Z,11.76
2023-05-16T04:00:12.666Z,11.92
2023-05-16T04:02:40.604Z,11.90
2023-05-16T04:05:08.604Z,12.18
2023-05-16T04:07:35.278Z,12.02
2023-05-16T04:10:02.947Z,12.07
2023-05-16T04:12:29.592Z,12.18
2023-05-16T04:14:56.279Z,11.93
2023-05-16T04:17:22.936Z,11.58
2023-05-16T04:19:49.624Z,11.95
2023-05-16T04:22:16.270Z,11.84
2023-05-16T04:24:42.981Z,12.14
2023-05-16T04:27:09.689Z,12.09
2023-05-16T04:29:36.668Z,11.85
2023-05-16T04:32:03.575Z,11.71
2023-05-16T04:34:30.333Z,11.92
2023-05-16T04:36:57.061Z,11.95
2023-05-16T04:39:23.687Z,12.02
2023-05-16T04:41:50.299Z,12.61
2023-05-16T04:44:16.917Z,12.36
2023-05-16T04:46:43.624Z,12.23
2023-05-16T04:49:10.301Z,12.34
2023-05-16T04:51:36.975Z,12.39
2023-05-16T04:54:03.600Z,12.43
2023-05-16T04:56:30.523Z,12.47
2023-05-16T04:58:57.109Z,12.54
2023-05-16T05:01:23.739Z,12.85
2023-05-16T05:03:50.394Z,12.67
2023-05-16T05:06:17.005Z,12.57
2023-05-16T05:08:43.650Z,12.43
2023-05-16T05:11:10.394Z,12.26
2023-05-16T05:13:37.031Z,12.32
2023-05-16T05:16:03.984Z,12.41
2023-05-16T05:18:31.321Z,12.37
2023-05-16T05:20:58.084Z,12.49
2023-05-16T05:23:24.746Z,12.54
2023-05-16T05:25:51.484Z,12.55
2023-05-16T05:28:18.125Z,12.40
2023-05-16T05:30:44.756Z,12.33
2023-05-16T05:33:14.202Z,12.48
2023-05-16T05:35:40.979Z,12.52
2023-05-16T05:38:07.699Z,12.92
2023-05-16T05:40:34.371Z,12.69
2023-05-16T05:43:01.043Z,12.69
2023-05-16T05:45:28.061Z,12.64
2023-05-16T05:47:55.114Z,12.67
2023-05-16T05:50:21.868Z,12.54
2023-05-16T05:52:48.552Z,12.54
2023-05-16T05:55:15.191Z,12.53
2023-05-16T05:57:41.985Z,12.41
2023-05-16T06:00:09.055Z,12.59
2023-05-16T06:02:36.039Z,12.67
2023-05-16T06:05:02.803Z,12.64
2023-05-16T06:07:29.565Z,12.61
2023-05-16T06:09:56.182Z,12.58
2023-05-16T06:12:22.762Z,12.49
2023-05-16T06:14:49.455Z,12.63
2023-05-16T06:17:16.292Z,12.56
2023-05-16T06:19:43.084Z,12.35
2023-05-16T06:22:12.931Z,12.34
2023-05-16T06:24:39.644Z,12.45
2023-05-16T06:27:07.308Z,12.55
2023-05-16T06:29:33.938Z,12.48
2023-05-16T06:32:00.684Z,12.44
2023-05-16T06:34:27.339Z,12.33
2023-05-16T06:36:54.699Z,12.45
2023-05-16T06:39:21.457Z,12.66
2023-05-16T06:41:48.192Z,12.90
2023-05-16T06:44:14.821Z,13.00
2023-05-16T06:46:41.590Z,12.82
2023-05-16T06:49:08.251Z,12.90
2023-05-16T06:51:34.938Z,12.88
2023-05-16T06:54:03.954Z,13.09
2023-05-16T06:56:30.978Z,13.58
2023-05-16T06:58:57.622Z,13.71
2023-05-16T07:01:24.284Z,13.49
2023-05-16T07:03:51.138Z,13.79
2023-05-16T07:06:17.909Z,13.63
2023-05-16T07:08:44.546Z,13.62
2023-05-16T07:11:11.209Z,14.06
2023-05-16T07:13:37.832Z,13.62
2023-05-16T07:16:04.839Z,13.96
2023-05-16T07:18:31.605Z,13.67
2023-05-16T07:20:58.384Z,13.45
2023-05-16T07:23:25.173Z,13.39
2023-05-16T07:25:51.808Z,13.48
2023-05-16T07:28:18.501Z,13.43
2023-05-16T07:30:45.150Z,13.31
2023-05-16T07:33:11.840Z,13.57
2023-05-16T07:35:38.641Z,13.58
2023-05-16T07:38:05.892Z,13.51
2023-05-16T07:40:32.520Z,13.88
2023-05-16T07:42:59.158Z,13.60
2023-05-16T07:45:26.113Z,13.91
2023-05-16T07:47:52.950Z,13.69
2023-05-16T07:50:19.706Z,13.85
2023-05-16T07:52:46.482Z,13.76
2023-05-16T07:55:13.117Z,13.62
2023-05-16T07:57:39.964Z,13.43
2023-05-16T08:00:07.319Z,13.88
2023-05-16T08:02:34.710Z,13.91
2023-05-16T08:05:01.697Z,13.77
2023-05-16T08:07:30.444Z,13.87
2023-05-16T08:09:57.165Z,13.92
2023-05-16T08:12:24.017Z,14.06
2023-05-16T08:14:50.734Z,14.20
2023-05-16T08:17:17.383Z,14.20
2023-05-16T08:19:44.046Z,14.10
2023-05-16T08:22:10.751Z,13.79
2023-05-16T08:24:37.403Z,14.01
2023-05-16T08:27:04.186Z,13.95
2023-05-16T08:29:38.226Z,13.86
2023-05-16T08:32:05.843Z,13.87
2023-05-16T08:34:32.541Z,13.77
2023-05-16T08:36:59.878Z,13.60
2023-05-16T08:39:26.526Z,13.81
2023-05-16T08:41:53.234Z,13.78
2023-05-16T08:44:19.908Z,13.72
2023-05-16T08:46:51.321Z,13.84
2023-05-16T08:49:18.763Z,13.93
2023-05-16T08:51:47.180Z,13.83
2023-05-16T08:54:15.825Z,13.81
2023-05-16T08:56:43.586Z,13.81
2023-05-16T08:59:11.597Z,13.76
2023-05-16T09:01:38.725Z,13.72
2023-05-16T09:04:08.906Z,13.61
2023-05-16T09:06:36.646Z,13.82
2023-05-16T09:09:03.989Z,13.80
2023-05-16T09:11:30.627Z,13.86
2023-05-16T09:13:57.226Z,14.01
2023-05-16T09:16:23.890Z,14.18
2023-05-16T09:18:55.592Z,14.04
2023-05-16T09:21:23.710Z,13.95
2023-05-16T09:23:50.560Z,13.81
2023-05-16T09:26:18.465Z,13.79
2023-05-16T09:28:45.364Z,13.90
2023-05-16T09:31:23.317Z,13.96
2023-05-16T09:33:50.066Z,13.92
2023-05-16T09:36:16.689Z,13.86
2023-05-16T09:38:43.480Z,13.92
2023-05-16T09:41:13.802Z,13.92
2023-05-16T09:43:42.070Z,13.84
2023-05-16T09:46:09.115Z,13.92
2023-05-16T09:48:35.877Z,13.92
2023-05-16T09:51:05.984Z,13.91
2023-05-16T09:53:33.515Z,13.87
2023-05-16T09:56:05.450Z,13.88
2023-05-16T09:58:33.024Z,14.04
2023-05-16T10:00:59.780Z,13.89
2023-05-16T10:03:27.422Z,13.80
2023-05-16T10:05:55.653Z,14.04
2023-05-16T10:08:26.391Z,14.32
2023-05-16T10:10:56.640Z,14.04
2023-05-16T10:13:30.216Z,13.85
2023-05-16T10:15:58.880Z,13.94
2023-05-16T10:18:32.495Z,14.04
2023-05-16T10:21:05.511Z,13.96
2023-05-16T10:23:33.891Z,13.92
2023-05-16T10:26:03.182Z,14.02
2023-05-16T10:28:33.283Z,14.33
2023-05-16T10:31:01.476Z,13.98
2023-05-16T10:33:28.781Z,13.99
2023-05-16T10:35:56.588Z,13.92
2023-05-16T10:38:24.389Z,14.07
2023-05-16T10:40:51.896Z,14.06
2023-05-16T10:43:34.858Z,14.17
2023-05-16T10:46:07.770Z,14.22
2023-05-16T10:48:36.958Z,14.25
2023-05-16T10:51:26.510Z,14.11
2023-05-16T10:54:08.681Z,14.27
2023-05-16T10:56:36.787Z,14.19
2023-05-16T10:59:03.471Z,14.47
2023-05-16T11:01:31.307Z,14.42
2023-05-16T11:03:57.965Z,14.38
2023-05-16T11:06:28.693Z,14.13
2023-05-16T11:09:04.154Z,14.09
2023-05-16T11:11:47.364Z,14.26
2023-05-16T11:14:40.578Z,14.22
2023-05-16T11:17:13.389Z,14.15
2023-05-16T11:19:50.723Z,14.16
2023-05-16T11:22:20.298Z,14.22
2023-05-16T11:25:07.112Z,14.17
2023-05-16T11:27:43.656Z,14.36
2023-05-16T11:30:10.271Z,14.41
2023-05-16T11:32:39.088Z,14.50
2023-05-16T11:35:07.913Z,14.37
2023-05-16T11:37:35.676Z,14.27
2023-05-16T11:40:08.009Z,14.25
2023-05-16T11:42:36.685Z,14.30
2023-05-16T11:45:12.088Z,14.33
2023-05-16T11:47:41.131Z,14.43
2023-05-16T11:50:13.674Z,14.54
2023-05-16T11:52:43.614Z,14.50
2023-05-16T11:55:11.266Z,14.45
2023-05-16T11:57:41.742Z,14.55
2023-05-16T12:00:20.094Z,14.54
2023-05-16T12:02:48.437Z,14.33
2023-05-16T12:05:16.501Z,14.51
2023-05-16T12:07:44.042Z,14.67
2023-05-16T12:10:12.634Z,14.72
2023-05-16T12:12:42.173Z,14.73
2023-05-16T12:15:10.117Z,14.75
2023-05-16T12:17:41.042Z,14.69
2023-05-16T12:20:10.463Z,14.34
2023-05-16T12:22:46.335Z,14.48
2023-05-16T12:25:46.150Z,14.41
2023-05-16T12:28:14.326Z,14.57
2023-05-16T12:30:43.130Z,14.54
2023-05-16T12:33:12.082Z,14.60
2023-05-16T12:35:41.372Z,14.59
2023-05-16T12:38:10.594Z,14.61
2023-05-16T12:40:38.151Z,14.91
2023-05-16T12:43:05.476Z,15.11
2023-05-16T12:45:35.328Z,14.97
2023-05-16T12:48:06.106Z,14.74
2023-05-16T12:50:33.402Z,14.67
2023-05-16T12:53:01.179Z,14.83
2023-05-16T12:55:27.972Z,14.96
2023-05-16T12:57:56.090Z,14.92
2023-05-16T13:00:22.823Z,14.59
2023-05-16T13:02:49.673Z,14.58
2023-05-16T13:05:16.597Z,14.75
2023-05-16T13:07:43.427Z,14.58
2023-05-16T13:10:11.535Z,14.81
2023-05-16T13:12:38.653Z,14.77
2023-05-16T13:15:06.640Z,14.71
2023-05-16T13:17:36.897Z,14.88
2023-05-16T13:20:05.109Z,14.88
2023-05-16T13:22:31.765Z,14.85
2023-05-16T13:24:58.433Z,14.99
2023-05-16T13:27:25.079Z,14.88
2023-05-16T13:29:51.716Z,14.82
2023-05-16T13:32:18.688Z,14.77
2023-05-16T13:34:45.379Z,14.74
2023-05-16T13:37:12.118Z,14.55
2023-05-16T13:39:38.776Z,14.65
2023-05-16T13:42:05.609Z,14.83
2023-05-16T13:44:32.321Z,15.17
2023-05-16T13:47:01.160Z,15.22
2023-05-16T13:49:27.852Z,15.45
2023-05-16T13:51:54.583Z,15.02
2023-05-16T13:54:21.349Z,15.14
2023-05-16T13:56:48.696Z,15.10
2023-05-16T13:59:20.830Z,15.03
2023-05-16T14:01:54.173Z,15.10
2023-05-16T14:04:21.000Z,15.16
2023-05-16T14:06:47.664Z,15.13
2023-05-16T14:09:14.287Z,15.15
2023-05-16T14:11:41.088Z,15.32
2023-05-16T14:14:07.739Z,14.88
2023-05-16T14:16:34.485Z,15.23
2023-05-16T14:19:01.406Z,15.30
2023-05-16T14:21:28.087Z,15.18
2023-05-16T14:23:54.823Z,15.48
2023-05-16T14:26:21.480Z,15.46
2023-05-16T14:28:48.757Z,15.54
2023-05-16T14:31:18.277Z,15.51
2023-05-16T14:33:44.986Z,15.73
2023-05-16T14:36:11.626Z,15.80
2023-05-16T14:38:38.278Z,15.52
2023-05-16T14:41:05.122Z,15.50
2023-05-16T14:43:34.963Z,15.34
2023-05-16T14:46:01.646Z,15.17
2023-05-16T14:48:28.366Z,15.13
2023-05-16T14:50:55.107Z,15.30
2023-05-16T14:53:21.841Z,15.09
2023-05-16T14:55:48.485Z,15.34
2023-05-16T14:58:15.136Z,15.37
2023-05-16T15:00:41.954Z,15.29
2023-05-16T15:03:08.644Z,15.10
2023-05-16T15:05:35.479Z,14.95
2023-05-16T15:08:02.090Z,15.09
2023-05-16T15:10:29.050Z,15.18
2023-05-16T15:12:55.858Z,15.04
2023-05-16T15:15:22.510Z,15.25
2023-05-16T15:17:49.435Z,15.49
2023-05-16T15:20:16.261Z,15.58
2023-05-16T15:22:42.920Z,15.69
2023-05-16T15:25:10.540Z,15.41
2023-05-16T15:27:37.594Z,15.53
2023-05-16T15:30:04.967Z,15.67
2023-05-16T15:32:31.659Z,15.69
2023-05-16T15:34:58.359Z,15.64
2023-05-16T15:37:25.169Z,15.53
2023-05-16T15:39:52.053Z,15.39
2023-05-16T15:42:18.762Z,15.41
2023-05-16T15:44:45.535Z,15.35
2023-05-16T15:47:12.333Z,15.33
2023-05-16T15:49:39.315Z,15.22
2023-05-16T15:52:06.328Z,15.09
2023-05-16T15:54:33.667Z,15.06
2023-05-16T15:57:00.323Z,14.99
2023-05-16T15:59:27.076Z,15.14
2023-05-16T16:01:53.999Z,15.27
2023-05-16T16:04:23.281Z,15.19
2023-05-16T16:06:50.286Z,15.13
2023-05-16T16:09:17.212Z,15.06
2023-05-16T16:11:43.975Z,15.25
2023-05-16T16:14:10.661Z,15.19
2023-05-16T16:16:37.384Z,14.81
2023-05-16T16:19:04.177Z,14.94
2023-05-16T16:21:30.931Z,15.19
2023-05-16T16:23:57.631Z,15.22
2023-05-16T16:26:24.520Z,15.28
2023-05-16T16:28:52.290Z,15.00
2023-05-16T16:31:19.067Z,14.88
2023-05-16T16:33:45.756Z,15.18
2023-05-16T16:36:12.400Z,15.23
2023-05-16T16:38:39.183Z,14.91
2023-05-16T16:41:05.931Z,14.80
2023-05-16T16:43:32.626Z,14.77
2023-05-16T16:45:59.437Z,14.88
2023-05-16T16:48:28.328Z,14.75
2023-05-16T16:50:58.136Z,14.71
2023-05-16T16:53:24.855Z,14.92
2023-05-16T16:55:51.495Z,14.73
2023-05-16T16:58:18.219Z,14.77
2023-05-16T17:00:46.202Z,14.40
2023-05-16T17:03:13.032Z,14.87
2023-05-16T17:05:39.687Z,14.86
2023-05-16T17:08:06.365Z,14.54
2023-05-16T17:10:33.045Z,15.18
2023-05-16T17:12:59.694Z,15.38
2023-05-16T17:15:26.588Z,15.08
2023-05-16T17:17:53.522Z,15.09
2023-05-16T17:20:20.353Z,15.12
2023-05-16T17:22:47.077Z,15.10
2023-05-16T17:25:13.726Z,15.05
2023-05-16T17:27:40.439Z,15.00
2023-05-16T17:30:08.170Z,14.89
2023-05-16T17:32:34.849Z,14.77
2023-05-16T17:35:01.516Z,15.00
2023-05-16T17:37:29.277Z,15.36
2023-05-16T17:39:55.939Z,15.09
2023-05-16T17:42:22.933Z,15.28
2023-05-16T17:44:49.601Z,15.37
2023-05-16T17:47:16.378Z,15.17
2023-05-16T17:49:43.081Z,15.22
2023-05-16T17:52:09.765Z,15.11
2023-05-16T17:54:36.519Z,15.17
2023-05-16T17:57:03.402Z,15.29
2023-05-16T17:59:30.185Z,15.27
2023-05-16T18:01:57.054Z,15.23
2023-05-16T18:04:23.989Z,15.37
2023-05-16T18:06:50.974Z,15.00
2023-05-16T18:09:17.918Z,14.99
2023-05-16T18:11:45.020Z,14.97
2023-05-16T18:14:13.225Z,15.05
2023-05-16T18:16:40.204Z,15.12
2023-05-16T18:19:07.087Z,15.13
2023-05-16T18:21:34.009Z,15.00
2023-05-16T18:24:00.634Z,15.15
2023-05-16T18:26:28.336Z,15.17
2023-05-16T18:28:55.157Z,15.15
2023-05-16T18:31:22.211Z,15.32
2023-05-16T18:33:48.850Z,15.01
2023-05-16T18:36:15.629Z,14.95
2023-05-16T18:38:42.319Z,15.07
2023-05-16T18:41:09.177Z,14.95
2023-05-16T18:43:35.831Z,15.06
2023-05-16T18:46:05.904Z,14.92
2023-05-16T18:48:33.419Z,14.57
2023-05-16T18:51:02.032Z,14.47
2023-05-16T18:53:28.728Z,14.80
2023-05-16T18:55:55.343Z,14.79
2023-05-16T18:58:21.991Z,14.80
2023-05-16T19:00:48.996Z,14.82
2023-05-16T19:03:15.649Z,14.76
2023-05-16T19:05:42.606Z,14.78
2023-05-16T19:08:09.384Z,15.07
2023-05-16T19:10:36.030Z,15.10
2023-05-16T19:13:02.697Z,15.35
2023-05-16T19:15:29.621Z,15.27
2023-05-16T19:17:56.554Z,15.10
2023-05-16T19:20:23.243Z,14.97
2023-05-16T19:22:49.902Z,15.07
2023-05-16T19:25:16.650Z,14.82
2023-05-16T19:27:43.494Z,14.91
2023-05-16T19:30:12.729Z,15.01
2023-05-16T19:32:39.481Z,15.13
2023-05-16T19:35:06.423Z,15.23
2023-05-16T19:37:33.308Z,15.16
2023-05-16T19:39:59.934Z,15.04
2023-05-16T19:42:26.638Z,14.76
2023-05-16T19:44:53.354Z,14.90
2023-05-16T19:47:19.986Z,14.84
2023-05-16T19:49:46.758Z,15.26
2023-05-16T19:52:13.457Z,15.04
2023-05-16T19:54:41.007Z,14.88
2023-05-16T19:57:07.640Z,14.87
2023-05-16T19:59:34.887Z,14.74
2023-05-16T20:02:04.669Z,14.75
2023-05-16T20:04:31.398Z,14.55
2023-05-16T20:06:58.090Z,14.45
2023-05-16T20:09:24.801Z,15.02
2023-05-16T20:11:51.595Z,14.91
2023-05-16T20:14:18.283Z,14.72
2023-05-16T20:16:44.964Z,14.57
2023-05-16T20:19:11.806Z,14.83
2023-05-16T20:21:38.464Z,14.71
2023-05-16T20:24:05.168Z,14.84
2023-05-16T20:26:31.852Z,15.06
2023-05-16T20:28:58.452Z,14.65
2023-05-16T20:31:25.102Z,14.74
2023-05-16T20:33:51.785Z,14.94
2023-05-16T20:36:18.537Z,14.81
2023-05-16T20:38:45.176Z,14.75
2023-05-16T20:41:11.838Z,14.84
2023-05-16T20:43:38.481Z,14.64
2023-05-16T20:46:05.532Z,14.57
2023-05-16T20:48:32.225Z,14.79
2023-05-16T20:50:58.904Z,14.64
2023-05-16T20:53:25.590Z,14.62
2023-05-16T20:55:52.247Z,14.96
2023-05-16T20:58:18.987Z,14.92
2023-05-16T21:00:45.613Z,14.84
2023-05-16T21:03:12.214Z,15.25
2023-05-16T21:05:39.459Z,14.95
2023-05-16T21:08:06.271Z,14.49
2023-05-16T21:10:32.987Z,14.61
2023-05-16T21:12:59.698Z,14.77
2023-05-16T21:15:26.625Z,14.49
2023-05-16T21:17:53.516Z,14.90
2023-05-16T21:20:20.374Z,14.90
2023-05-16T21:22:47.001Z,14.75
2023-05-16T21:25:13.881Z,14.67
2023-05-16T21:27:40.494Z,14.74
2023-05-16T21:30:07.730Z,14.78
2023-05-16T21:32:34.471Z,14.74
2023-05-16T21:35:01.277Z,14.43
2023-05-16T21:37:27.998Z,14.62
2023-05-16T21:39:54.798Z,14.49
2023-05-16T21:42:21.553Z,14.62
2023-05-16T21:44:48.200Z,14.79
2023-05-16T21:47:14.802Z,14.84
2023-05-16T21:49:41.501Z,15.00
2023-05-16T21:52:08.276Z,14.67
2023-05-16T21:54:35.014Z,14.72
2023-05-16T21:57:01.659Z,14.68
2023-05-16T21:59:28.443Z,14.69
2023-05-16T22:01:55.294Z,14.64
2023-05-16T22:04:21.978Z,14.67
2023-05-16T22:06:48.846Z,14.75
2023-05-16T22:09:15.595Z,14.69
2023-05-16T22:11:42.312Z,14.53
2023-05-16T22:14:09.052Z,14.65
2023-05-16T22:16:35.963Z,14.30
2023-05-16T22:19:02.750Z,14.48
2023-05-16T22:21:29.395Z,14.21
2023-05-16T22:23:56.019Z,14.35
2023-05-16T22:26:24.865Z,14.26
2023-05-16T22:28:51.486Z,14.43
2023-05-16T22:31:18.077Z,14.32
2023-05-16T22:33:44.881Z,14.40
2023-05-16T22:36:11.633Z,14.67
2023-05-16T22:38:38.571Z,14.41
2023-05-16T22:41:05.303Z,14.63
2023-05-16T22:43:31.958Z,14.57
2023-05-16T22:45:59.406Z,14.20
2023-05-16T22:48:27.458Z,14.27
2023-05-16T22:50:54.201Z,14.22
2023-05-16T22:53:20.827Z,14.20
2023-05-16T22:55:47.452Z,14.28
2023-05-16T22:58:14.082Z,14.22
2023-05-16T23:00:40.773Z,14.38
2023-05-16T23:03:07.664Z,14.39
2023-05-16T23:05:35.487Z,14.14
2023-05-16T23:08:02.203Z,13.98
2023-05-16T23:10:28.980Z,13.78
2023-05-16T23:12:55.645Z,13.61
2023-05-16T23:15:22.361Z,13.79
2023-05-16T23:17:49.149Z,13.81
2023-05-16T23:20:15.903Z,13.83
2023-05-16T23:22:42.793Z,13.58
2023-05-16T23:25:09.816Z,13.96
2023-05-16T23:27:36.460Z,13.81
2023-05-16T23:30:03.268Z,13.81
2023-05-16T23:32:30.080Z,13.83
2023-05-16T23:34:56.854Z,13.92
2023-05-16T23:37:23.604Z,14.02
2023-05-16T23:39:50.289Z,13.90
2023-05-16T23:42:17.116Z,13.66
2023-05-16T23:44:43.776Z,13.73
2023-05-16T23:47:10.424Z,14.17
2023-05-16T23:49:37.077Z,14.49
2023-05-16T23:52:03.926Z,14.19
2023-05-16T23:54:30.642Z,14.00
2023-05-16T23:56:57.435Z,14.14
2023-05-16T23:59:24.133Z,14.26
